createdAt,value
2018-11-27T00:08:26.043Z,12.90
2018-11-27T00:29:02.262Z,13.10
2018-11-27T00:49:39.495Z,12.60
2018-11-27T01:10:24.699Z,13.30
2018-11-27T01:31:01.711Z,13.87
2018-11-27T01:51:39.131Z,12.20
2018-11-27T02:12:20.241Z,10.80
2018-11-27T02:32:57.662Z,10.13
2018-11-27T02:53:35.087Z,9.90
2018-11-27T03:14:10.391Z,9.13
2018-11-27T03:34:47.474Z,8.80
2018-11-27T03:55:23.861Z,7.80
2018-11-27T04:16:01.109Z,8.00
2018-11-27T04:36:40.972Z,8.57
2018-11-27T04:57:19.621Z,7.33
2018-11-27T05:17:57.863Z,8.60
2018-11-27T05:38:34.056Z,6.73
2018-11-27T05:59:15.169Z,7.23
2018-11-27T06:19:50.543Z,7.20
2018-11-27T06:40:28.786Z,7.30
2018-11-27T07:01:07.844Z,6.90
2018-11-27T07:21:51.413Z,7.20
2018-11-27T07:42:27.606Z,7.60
2018-11-27T08:03:05.841Z,6.80
2018-11-27T08:23:42.039Z,6.20
2018-11-27T08:44:17.417Z,7.40
2018-11-27T09:04:55.655Z,9.30
2018-11-27T09:25:33.999Z,9.47
2018-11-27T09:46:12.140Z,9.30
2018-11-27T10:06:46.285Z,9.97
2018-11-27T10:27:23.709Z,8.90
2018-11-27T10:48:05.022Z,7.50
2018-11-27T11:08:42.238Z,8.20
2018-11-27T11:29:19.252Z,7.80
2018-11-27T11:50:02.825Z,7.00
2018-11-27T12:10:39.015Z,6.10
2018-11-27T12:31:20.120Z,5.73
2018-11-27T12:51:59.602Z,4.30
2018-11-27T13:12:39.883Z,7.07
2018-11-27T13:33:23.859Z,6.70
2018-11-27T13:54:02.103Z,7.90
2018-11-27T14:14:41.768Z,8.80
2018-11-27T14:35:19.816Z,10.00
2018-11-27T14:56:00.314Z,9.27
2018-11-27T15:16:39.165Z,8.53
2018-11-27T15:37:15.768Z,10.20
2018-11-27T15:58:03.838Z,8.70
2018-11-27T16:18:43.448Z,8.47
2018-11-27T16:39:23.600Z,9.40
2018-11-27T17:00:02.666Z,10.53
2018-11-27T17:20:42.943Z,9.40
2018-11-27T17:41:24.464Z,9.17
2018-11-27T18:02:03.529Z,8.90
2018-11-27T18:22:40.949Z,9.73
2018-11-27T18:43:19.192Z,10.67
2018-11-27T19:03:59.544Z,10.20
2018-11-27T19:24:35.678Z,9.50
2018-11-27T19:45:13.917Z,9.90
2018-11-27T20:05:52.163Z,10.47
2018-11-27T20:26:32.447Z,9.80
2018-11-27T20:47:11.927Z,8.80
2018-11-27T21:07:51.208Z,9.63
2018-11-27T21:28:35.531Z,10.20
2018-11-27T21:49:13.206Z,9.60
2018-11-27T22:09:52.047Z,9.90
2018-11-27T22:30:28.871Z,11.50
2018-11-27T22:51:06.606Z,10.13
2018-11-27T23:11:42.494Z,10.20
2018-11-27T23:32:17.863Z,10.97
2018-11-27T23:52:54.875Z,13.03
